sensor_id;sensor_type;location;lat;lon;timestamp;P1;durP1;ratioP1;P2;durP2;ratioP2
29370;SDS011;16357;52.188;7.838;2023-05-01T00:01:03;5.20;;;2.78;;
29370;SDS011;16357;52.188;7.838;2023-05-01T00:03:31;8.57;;;4.40;;
29370;SDS011;16357;52.188;7.838;2023-05-01T00:05:59;12.45;;;4.28;;
29370;SDS011;16357;52.188;7.838;2023-05-01T00:08:27;11.63;;;4.80;;
29370;SDS011;16357;52.188;7.838;2023-05-01T00:10:53;8.32;;;4.40;;
29370;SDS011;16357;52.188;7.838;2023-05-01T00:13:19;10.43;;;4.55;;
29370;SDS011;16357;52.188;7.838;2023-05-01T00:15:48;8.82;;;4.15;;
29370;SDS011;16357;52.188;7.838;2023-05-01T00:18:15;9.15;;;3.95;;
29370;SDS011;16357;52.188;7.838;2023-05-01T00:20:42;8.50;;;3.92;;
29370;SDS011;16357;52.188;7.838;2023-05-01T00:23:08;7.78;;;3.67;;
29370;SDS011;16357;52.188;7.838;2023-05-01T00:25:34;8.27;;;3.72;;
29370;SDS011;16357;52.188;7.838;2023-05-01T00:28:01;8.40;;;3.72;;
29370;SDS011;16357;52.188;7.838;2023-05-01T00:30:28;11.30;;;3.80;;
29370;SDS011;16357;52.188;7.838;2023-05-01T00:32:54;9.25;;;3.30;;
29370;SDS011;16357;52.188;7.838;2023-05-01T00:35:21;9.07;;;3.85;;
29370;SDS011;16357;52.188;7.838;2023-05-01T00:37:47;8.45;;;3.83;;
29370;SDS011;16357;52.188;7.838;2023-05-01T00:40:14;8.57;;;3.40;;
29370;SDS011;16357;52.188;7.838;2023-05-01T00:42:40;10.57;;;3.28;;
29370;SDS011;16357;52.188;7.838;2023-05-01T00:45:07;7.47;;;3.08;;
29370;SDS011;16357;52.188;7.838;2023-05-01T00:47:36;6.63;;;2.92;;
29370;SDS011;16357;52.188;7.838;2023-05-01T00:50:03;5.88;;;2.83;;
29370;SDS011;16357;52.188;7.838;2023-05-01T00:52:31;7.80;;;3.22;;
29370;SDS011;16357;52.188;7.838;2023-05-01T00:54:57;5.75;;;2.67;;
29370;SDS011;16357;52.188;7.838;2023-05-01T00:57:24;5.95;;;3.15;;
29370;SDS011;16357;52.188;7.838;2023-05-01T00:59:51;7.30;;;3.20;;
29370;SDS011;16357;52.188;7.838;2023-05-01T01:02:17;5.70;;;3.00;;
29370;SDS011;16357;52.188;7.838;2023-05-01T01:04:44;4.45;;;3.13;;
29370;SDS011;16357;52.188;7.838;2023-05-01T01:07:21;4.65;;;3.47;;
29370;SDS011;16357;52.188;7.838;2023-05-01T01:13:03;5.85;;;3.03;;
29370;SDS011;16357;52.188;7.838;2023-05-01T01:18:51;5.32;;;2.67;;
29370;SDS011;16357;52.188;7.838;2023-05-01T01:21:39;5.57;;;2.90;;
29370;SDS011;16357;52.188;7.838;2023-05-01T01:35:17;4.07;;;2.33;;
29370;SDS011;16357;52.188;7.838;2023-05-01T01:37:50;8.65;;;2.45;;
29370;SDS011;16357;52.188;7.838;2023-05-01T01:40:45;5.15;;;2.40;;
29370;SDS011;16357;52.188;7.838;2023-05-01T01:43:18;4.25;;;1.90;;
29370;SDS011;16357;52.188;7.838;2023-05-01T01:45:49;6.80;;;2.42;;
29370;SDS011;16357;52.188;7.838;2023-05-01T01:48:27;7.53;;;2.13;;
29370;SDS011;16357;52.188;7.838;2023-05-01T01:50:57;5.13;;;2.20;;
29370;SDS011;16357;52.188;7.838;2023-05-01T01:53:27;6.85;;;2.13;;
29370;SDS011;16357;52.188;7.838;2023-05-01T01:55:56;4.82;;;2.10;;
29370;SDS011;16357;52.188;7.838;2023-05-01T01:58:26;5.13;;;2.28;;
29370;SDS011;16357;52.188;7.838;2023-05-01T02:00:55;5.35;;;2.60;;
29370;SDS011;16357;52.188;7.838;2023-05-01T02:03:22;7.15;;;2.40;;
29370;SDS011;16357;52.188;7.838;2023-05-01T02:05:51;6.32;;;2.20;;
29370;SDS011;16357;52.188;7.838;2023-05-01T02:08:20;6.20;;;2.70;;
29370;SDS011;16357;52.188;7.838;2023-05-01T02:10:48;7.47;;;2.60;;
29370;SDS011;16357;52.188;7.838;2023-05-01T02:13:16;4.55;;;2.55;;
29370;SDS011;16357;52.188;7.838;2023-05-01T02:15:43;5.45;;;2.50;;
29370;SDS011;16357;52.188;7.838;2023-05-01T02:18:11;4.22;;;2.45;;
29370;SDS011;16357;52.188;7.838;2023-05-01T02:20:38;9.57;;;2.78;;
29370;SDS011;16357;52.188;7.838;2023-05-01T02:23:07;7.28;;;2.63;;
29370;SDS011;16357;52.188;7.838;2023-05-01T02:25:35;5.03;;;2.08;;
29370;SDS011;16357;52.188;7.838;2023-05-01T02:28:07;6.43;;;2.67;;
29370;SDS011;16357;52.188;7.838;2023-05-01T02:30:37;5.38;;;2.50;;
29370;SDS011;16357;52.188;7.838;2023-05-01T02:33:07;4.95;;;2.60;;
29370;SDS011;16357;52.188;7.838;2023-05-01T02:35:37;4.65;;;2.75;;
29370;SDS011;16357;52.188;7.838;2023-05-01T02:38:09;7.68;;;2.80;;
29370;SDS011;16357;52.188;7.838;2023-05-01T02:40:38;4.72;;;2.80;;
29370;SDS011;16357;52.188;7.838;2023-05-01T02:43:07;7.03;;;2.70;;
29370;SDS011;16357;52.188;7.838;2023-05-01T02:45:39;5.75;;;2.85;;
29370;SDS011;16357;52.188;7.838;2023-05-01T02:48:06;5.15;;;2.75;;
29370;SDS011;16357;52.188;7.838;2023-05-01T02:50:36;4.75;;;2.55;;
29370;SDS011;16357;52.188;7.838;2023-05-01T02:53:05;5.45;;;2.88;;
29370;SDS011;16357;52.188;7.838;2023-05-01T02:55:33;7.50;;;2.72;;
29370;SDS011;16357;52.188;7.838;2023-05-01T02:58:00;6.28;;;2.90;;
29370;SDS011;16357;52.188;7.838;2023-05-01T03:00:27;4.38;;;2.75;;
29370;SDS011;16357;52.188;7.838;2023-05-01T03:02:55;5.38;;;3.35;;
29370;SDS011;16357;52.188;7.838;2023-05-01T03:05:21;4.88;;;2.65;;
29370;SDS011;16357;52.188;7.838;2023-05-01T03:07:48;11.30;;;3.28;;
29370;SDS011;16357;52.188;7.838;2023-05-01T03:10:14;6.10;;;2.78;;
29370;SDS011;16357;52.188;7.838;2023-05-01T03:12:40;5.68;;;3.25;;
29370;SDS011;16357;52.188;7.838;2023-05-01T03:15:07;6.20;;;2.85;;
29370;SDS011;16357;52.188;7.838;2023-05-01T03:17:34;5.53;;;3.05;;
29370;SDS011;16357;52.188;7.838;2023-05-01T03:20:00;7.45;;;3.00;;
29370;SDS011;16357;52.188;7.838;2023-05-01T03:22:28;8.80;;;2.85;;
29370;SDS011;16357;52.188;7.838;2023-05-01T03:24:54;6.93;;;2.90;;
29370;SDS011;16357;52.188;7.838;2023-05-01T03:27:21;6.07;;;2.80;;
29370;SDS011;16357;52.188;7.838;2023-05-01T03:29:47;8.07;;;2.92;;
29370;SDS011;16357;52.188;7.838;2023-05-01T03:32:14;4.85;;;2.88;;
29370;SDS011;16357;52.188;7.838;2023-05-01T03:34:42;10.40;;;3.00;;
29370;SDS011;16357;52.188;7.838;2023-05-01T03:37:09;9.07;;;2.85;;
29370;SDS011;16357;52.188;7.838;2023-05-01T03:39:37;6.43;;;3.17;;
29370;SDS011;16357;52.188;7.838;2023-05-01T03:42:03;7.00;;;3.00;;
29370;SDS011;16357;52.188;7.838;2023-05-01T03:44:30;5.30;;;2.70;;
29370;SDS011;16357;52.188;7.838;2023-05-01T03:46:57;5.97;;;2.75;;
29370;SDS011;16357;52.188;7.838;2023-05-01T03:49:24;8.25;;;3.03;;
29370;SDS011;16357;52.188;7.838;2023-05-01T03:51:50;6.20;;;2.60;;
29370;SDS011;16357;52.188;7.838;2023-05-01T03:54:17;6.78;;;3.05;;
29370;SDS011;16357;52.188;7.838;2023-05-01T03:56:43;5.93;;;3.10;;
29370;SDS011;16357;52.188;7.838;2023-05-01T03:59:09;9.02;;;3.25;;
29370;SDS011;16357;52.188;7.838;2023-05-01T04:01:36;6.90;;;3.22;;
29370;SDS011;16357;52.188;7.838;2023-05-01T04:04:03;5.68;;;2.80;;
29370;SDS011;16357;52.188;7.838;2023-05-01T04:06:30;5.63;;;3.53;;
29370;SDS011;16357;52.188;7.838;2023-05-01T04:08:57;4.22;;;3.03;;
29370;SDS011;16357;52.188;7.838;2023-05-01T04:11:23;8.05;;;3.20;;
29370;SDS011;16357;52.188;7.838;2023-05-01T04:13:50;5.15;;;2.75;;
29370;SDS011;16357;52.188;7.838;2023-05-01T04:16:16;6.60;;;3.05;;
29370;SDS011;16357;52.188;7.838;2023-05-01T04:18:43;5.80;;;2.97;;
29370;SDS011;16357;52.188;7.838;2023-05-01T04:21:09;10.50;;;3.25;;
29370;SDS011;16357;52.188;7.838;2023-05-01T04:23:36;7.72;;;3.28;;
29370;SDS011;16357;52.188;7.838;2023-05-01T04:26:02;6.07;;;2.95;;
29370;SDS011;16357;52.188;7.838;2023-05-01T04:28:29;4.78;;;2.70;;
29370;SDS011;16357;52.188;7.838;2023-05-01T04:30:56;8.32;;;3.20;;
29370;SDS011;16357;52.188;7.838;2023-05-01T04:33:23;5.55;;;3.22;;
29370;SDS011;16357;52.188;7.838;2023-05-01T04:35:49;4.75;;;2.47;;
29370;SDS011;16357;52.188;7.838;2023-05-01T04:38:15;8.68;;;2.95;;
29370;SDS011;16357;52.188;7.838;2023-05-01T04:40:42;6.03;;;3.35;;
29370;SDS011;16357;52.188;7.838;2023-05-01T04:43:08;4.93;;;2.85;;
29370;SDS011;16357;52.188;7.838;2023-05-01T04:45:35;5.10;;;2.65;;
29370;SDS011;16357;52.188;7.838;2023-05-01T04:48:03;7.53;;;2.88;;
29370;SDS011;16357;52.188;7.838;2023-05-01T04:50:30;6.97;;;2.70;;
29370;SDS011;16357;52.188;7.838;2023-05-01T04:52:56;7.72;;;2.78;;
29370;SDS011;16357;52.188;7.838;2023-05-01T04:55:24;7.00;;;2.83;;
29370;SDS011;16357;52.188;7.838;2023-05-01T04:57:50;5.80;;;2.85;;
29370;SDS011;16357;52.188;7.838;2023-05-01T05:00:17;4.78;;;2.97;;
29370;SDS011;16357;52.188;7.838;2023-05-01T05:02:44;9.60;;;2.92;;
29370;SDS011;16357;52.188;7.838;2023-05-01T05:05:11;4.63;;;2.80;;
29370;SDS011;16357;52.188;7.838;2023-05-01T05:07:37;5.57;;;2.60;;
29370;SDS011;16357;52.188;7.838;2023-05-01T05:10:04;6.55;;;2.90;;
29370;SDS011;16357;52.188;7.838;2023-05-01T05:12:31;6.18;;;3.00;;
29370;SDS011;16357;52.188;7.838;2023-05-01T05:14:57;6.15;;;2.72;;
29370;SDS011;16357;52.188;7.838;2023-05-01T05:17:24;5.75;;;3.00;;
29370;SDS011;16357;52.188;7.838;2023-05-01T05:19:50;5.95;;;2.90;;
29370;SDS011;16357;52.188;7.838;2023-05-01T05:22:17;6.88;;;3.00;;
29370;SDS011;16357;52.188;7.838;2023-05-01T05:24:44;6.50;;;2.75;;
29370;SDS011;16357;52.188;7.838;2023-05-01T05:27:10;6.22;;;3.03;;
29370;SDS011;16357;52.188;7.838;2023-05-01T05:29:36;4.95;;;2.83;;
29370;SDS011;16357;52.188;7.838;2023-05-01T05:32:03;8.07;;;2.80;;
29370;SDS011;16357;52.188;7.838;2023-05-01T05:34:29;4.50;;;2.72;;
29370;SDS011;16357;52.188;7.838;2023-05-01T05:36:56;5.55;;;2.92;;
29370;SDS011;16357;52.188;7.838;2023-05-01T05:39:22;7.00;;;3.17;;
29370;SDS011;16357;52.188;7.838;2023-05-01T05:41:49;4.82;;;2.92;;
29370;SDS011;16357;52.188;7.838;2023-05-01T05:44:15;7.28;;;3.10;;
29370;SDS011;16357;52.188;7.838;2023-05-01T05:46:42;7.25;;;3.00;;
29370;SDS011;16357;52.188;7.838;2023-05-01T05:49:08;6.63;;;3.00;;
29370;SDS011;16357;52.188;7.838;2023-05-01T05:51:35;6.55;;;3.03;;
29370;SDS011;16357;52.188;7.838;2023-05-01T05:54:01;5.70;;;2.95;;
29370;SDS011;16357;52.188;7.838;2023-05-01T05:56:27;6.05;;;2.97;;
29370;SDS011;16357;52.188;7.838;2023-05-01T05:58:54;6.75;;;2.67;;
29370;SDS011;16357;52.188;7.838;2023-05-01T06:01:20;4.57;;;2.85;;
29370;SDS011;16357;52.188;7.838;2023-05-01T06:03:47;6.60;;;3.35;;
29370;SDS011;16357;52.188;7.838;2023-05-01T06:06:13;4.15;;;2.78;;
29370;SDS011;16357;52.188;7.838;2023-05-01T06:08:40;5.63;;;2.60;;
29370;SDS011;16357;52.188;7.838;2023-05-01T06:11:07;7.00;;;3.10;;
29370;SDS011;16357;52.188;7.838;2023-05-01T06:13:34;6.82;;;2.78;;
29370;SDS011;16357;52.188;7.838;2023-05-01T06:16:00;7.38;;;3.30;;
29370;SDS011;16357;52.188;7.838;2023-05-01T06:18:27;6.65;;;3.15;;
29370;SDS011;16357;52.188;7.838;2023-05-01T06:20:55;7.07;;;3.25;;
29370;SDS011;16357;52.188;7.838;2023-05-01T06:23:21;6.18;;;3.28;;
29370;SDS011;16357;52.188;7.838;2023-05-01T06:25:48;5.00;;;2.63;;
29370;SDS011;16357;52.188;7.838;2023-05-01T06:28:14;4.40;;;2.83;;
29370;SDS011;16357;52.188;7.838;2023-05-01T06:30:41;7.40;;;3.13;;
29370;SDS011;16357;52.188;7.838;2023-05-01T06:33:07;9.38;;;3.42;;
29370;SDS011;16357;52.188;7.838;2023-05-01T06:35:37;5.00;;;2.58;;
29370;SDS011;16357;52.188;7.838;2023-05-01T06:38:04;4.95;;;2.80;;
29370;SDS011;16357;52.188;7.838;2023-05-01T06:40:30;5.43;;;3.10;;
29370;SDS011;16357;52.188;7.838;2023-05-01T06:43:00;6.57;;;3.05;;
29370;SDS011;16357;52.188;7.838;2023-05-01T06:45:27;5.53;;;2.83;;
29370;SDS011;16357;52.188;7.838;2023-05-01T06:47:54;7.28;;;3.42;;
29370;SDS011;16357;52.188;7.838;2023-05-01T06:50:21;5.13;;;2.58;;
29370;SDS011;16357;52.188;7.838;2023-05-01T06:52:47;4.97;;;2.85;;
29370;SDS011;16357;52.188;7.838;2023-05-01T06:55:13;5.05;;;2.65;;
29370;SDS011;16357;52.188;7.838;2023-05-01T06:57:40;5.85;;;2.83;;
29370;SDS011;16357;52.188;7.838;2023-05-01T07:00:07;5.47;;;3.13;;
29370;SDS011;16357;52.188;7.838;2023-05-01T07:02:35;8.15;;;2.85;;
29370;SDS011;16357;52.188;7.838;2023-05-01T07:05:03;6.22;;;2.92;;
29370;SDS011;16357;52.188;7.838;2023-05-01T07:07:30;5.65;;;2.92;;
29370;SDS011;16357;52.188;7.838;2023-05-01T07:09:57;5.43;;;2.78;;
29370;SDS011;16357;52.188;7.838;2023-05-01T07:12:24;5.40;;;2.65;;
29370;SDS011;16357;52.188;7.838;2023-05-01T07:14:50;5.03;;;2.65;;
29370;SDS011;16357;52.188;7.838;2023-05-01T07:17:17;6.45;;;2.80;;
29370;SDS011;16357;52.188;7.838;2023-05-01T07:19:44;4.85;;;2.83;;
29370;SDS011;16357;52.188;7.838;2023-05-01T07:22:10;6.15;;;3.35;;
29370;SDS011;16357;52.188;7.838;2023-05-01T07:24:37;4.50;;;2.53;;
29370;SDS011;16357;52.188;7.838;2023-05-01T07:27:03;5.40;;;3.05;;
29370;SDS011;16357;52.188;7.838;2023-05-01T07:29:30;6.57;;;3.00;;
29370;SDS011;16357;52.188;7.838;2023-05-01T07:31:56;3.72;;;2.55;;
29370;SDS011;16357;52.188;7.838;2023-05-01T07:34:23;5.35;;;3.20;;
29370;SDS011;16357;52.188;7.838;2023-05-01T07:36:49;4.45;;;2.50;;
29370;SDS011;16357;52.188;7.838;2023-05-01T07:39:15;6.32;;;2.95;;
29370;SDS011;16357;52.188;7.838;2023-05-01T07:41:43;4.85;;;2.70;;
29370;SDS011;16357;52.188;7.838;2023-05-01T07:44:09;6.00;;;2.88;;
29370;SDS011;16357;52.188;7.838;2023-05-01T07:46:35;4.65;;;2.83;;
29370;SDS011;16357;52.188;7.838;2023-05-01T07:49:03;6.38;;;2.60;;
29370;SDS011;16357;52.188;7.838;2023-05-01T07:51:29;5.50;;;2.97;;
29370;SDS011;16357;52.188;7.838;2023-05-01T07:53:56;5.43;;;3.03;;
29370;SDS011;16357;52.188;7.838;2023-05-01T07:56:22;5.25;;;2.67;;
29370;SDS011;16357;52.188;7.838;2023-05-01T07:58:48;5.57;;;3.20;;
29370;SDS011;16357;52.188;7.838;2023-05-01T08:01:15;4.55;;;2.45;;
29370;SDS011;16357;52.188;7.838;2023-05-01T08:03:41;4.50;;;2.92;;
29370;SDS011;16357;52.188;7.838;2023-05-01T08:06:07;5.78;;;2.92;;
29370;SDS011;16357;52.188;7.838;2023-05-01T08:08:34;4.18;;;2.80;;
29370;SDS011;16357;52.188;7.838;2023-05-01T08:11:00;5.65;;;3.00;;
29370;SDS011;16357;52.188;7.838;2023-05-01T08:13:27;6.57;;;2.63;;
29370;SDS011;16357;52.188;7.838;2023-05-01T08:15:53;5.30;;;2.80;;
29370;SDS011;16357;52.188;7.838;2023-05-01T08:18:20;4.88;;;2.70;;
29370;SDS011;16357;52.188;7.838;2023-05-01T08:20:46;5.10;;;2.65;;
29370;SDS011;16357;52.188;7.838;2023-05-01T08:23:14;4.80;;;3.00;;
29370;SDS011;16357;52.188;7.838;2023-05-01T08:25:41;3.58;;;2.35;;
29370;SDS011;16357;52.188;7.838;2023-05-01T08:28:07;5.30;;;2.80;;
29370;SDS011;16357;52.188;7.838;2023-05-01T08:30:34;4.90;;;2.83;;
29370;SDS011;16357;52.188;7.838;2023-05-01T08:33:00;7.25;;;2.50;;
29370;SDS011;16357;52.188;7.838;2023-05-01T08:35:27;4.47;;;2.53;;
29370;SDS011;16357;52.188;7.838;2023-05-01T08:37:54;4.65;;;2.70;;
29370;SDS011;16357;52.188;7.838;2023-05-01T08:40:22;4.85;;;2.60;;
29370;SDS011;16357;52.188;7.838;2023-05-01T08:42:48;5.53;;;2.55;;
29370;SDS011;16357;52.188;7.838;2023-05-01T08:45:16;7.88;;;2.65;;
29370;SDS011;16357;52.188;7.838;2023-05-01T08:47:44;5.85;;;2.83;;
29370;SDS011;16357;52.188;7.838;2023-05-01T08:50:10;5.88;;;2.85;;
29370;SDS011;16357;52.188;7.838;2023-05-01T08:52:39;5.55;;;2.80;;
29370;SDS011;16357;52.188;7.838;2023-05-01T08:55:11;4.03;;;2.63;;
29370;SDS011;16357;52.188;7.838;2023-05-01T08:57:45;5.10;;;2.70;;
29370;SDS011;16357;52.188;7.838;2023-05-01T09:00:16;4.50;;;2.70;;
29370;SDS011;16357;52.188;7.838;2023-05-01T09:02:45;7.00;;;2.20;;
29370;SDS011;16357;52.188;7.838;2023-05-01T09:05:14;4.72;;;2.58;;
29370;SDS011;16357;52.188;7.838;2023-05-01T09:07:42;4.97;;;2.38;;
29370;SDS011;16357;52.188;7.838;2023-05-01T09:10:11;4.03;;;2.15;;
29370;SDS011;16357;52.188;7.838;2023-05-01T09:12:39;5.10;;;2.47;;
29370;SDS011;16357;52.188;7.838;2023-05-01T09:15:07;4.45;;;2.38;;
29370;SDS011;16357;52.188;7.838;2023-05-01T09:17:34;3.17;;;2.20;;
29370;SDS011;16357;52.188;7.838;2023-05-01T09:20:02;3.50;;;2.38;;
29370;SDS011;16357;52.188;7.838;2023-05-01T09:22:32;3.42;;;2.30;;
29370;SDS011;16357;52.188;7.838;2023-05-01T09:25:00;6.53;;;2.20;;
29370;SDS011;16357;52.188;7.838;2023-05-01T09:27:28;3.42;;;1.95;;
29370;SDS011;16357;52.188;7.838;2023-05-01T09:29:58;4.05;;;2.03;;
29370;SDS011;16357;52.188;7.838;2023-05-01T09:32:25;3.08;;;2.10;;
29370;SDS011;16357;52.188;7.838;2023-05-01T09:34:54;4.53;;;2.30;;
29370;SDS011;16357;52.188;7.838;2023-05-01T09:37:33;2.65;;;1.90;;
29370;SDS011;16357;52.188;7.838;2023-05-01T09:40:09;6.07;;;2.10;;
29370;SDS011;16357;52.188;7.838;2023-05-01T09:42:38;5.05;;;2.40;;
29370;SDS011;16357;52.188;7.838;2023-05-01T09:45:15;3.53;;;1.92;;
29370;SDS011;16357;52.188;7.838;2023-05-01T09:47:42;3.42;;;1.90;;
29370;SDS011;16357;52.188;7.838;2023-05-01T09:50:10;5.03;;;2.17;;
29370;SDS011;16357;52.188;7.838;2023-05-01T09:52:39;3.28;;;1.90;;
29370;SDS011;16357;52.188;7.838;2023-05-01T09:55:23;4.15;;;1.60;;
29370;SDS011;16357;52.188;7.838;2023-05-01T09:57:51;2.90;;;1.80;;
29370;SDS011;16357;52.188;7.838;2023-05-01T10:00:18;3.17;;;1.90;;
29370;SDS011;16357;52.188;7.838;2023-05-01T10:02:47;5.25;;;2.13;;
29370;SDS011;16357;52.188;7.838;2023-05-01T10:05:14;3.92;;;1.90;;
29370;SDS011;16357;52.188;7.838;2023-05-01T10:07:53;3.88;;;1.67;;
29370;SDS011;16357;52.188;7.838;2023-05-01T10:10:22;6.40;;;2.03;;
29370;SDS011;16357;52.188;7.838;2023-05-01T10:12:48;3.28;;;1.92;;
29370;SDS011;16357;52.188;7.838;2023-05-01T10:15:15;5.38;;;2.30;;
29370;SDS011;16357;52.188;7.838;2023-05-01T10:17:51;3.75;;;2.20;;
29370;SDS011;16357;52.188;7.838;2023-05-01T10:20:19;2.25;;;1.55;;
29370;SDS011;16357;52.188;7.838;2023-05-01T10:22:46;4.38;;;2.05;;
29370;SDS011;16357;52.188;7.838;2023-05-01T10:25:13;4.10;;;2.00;;
29370;SDS011;16357;52.188;7.838;2023-05-01T10:27:42;5.28;;;2.08;;
29370;SDS011;16357;52.188;7.838;2023-05-01T10:30:09;5.40;;;1.90;;
29370;SDS011;16357;52.188;7.838;2023-05-01T10:32:36;2.33;;;1.70;;
29370;SDS011;16357;52.188;7.838;2023-05-01T10:35:08;3.55;;;1.65;;
29370;SDS011;16357;52.188;7.838;2023-05-01T10:37:43;5.13;;;1.67;;
29370;SDS011;16357;52.188;7.838;2023-05-01T10:45:44;2.63;;;1.77;;
29370;SDS011;16357;52.188;7.838;2023-05-01T10:48:11;4.40;;;1.77;;
29370;SDS011;16357;52.188;7.838;2023-05-01T10:53:43;2.83;;;1.73;;
29370;SDS011;16357;52.188;7.838;2023-05-01T10:59:00;2.40;;;1.50;;
29370;SDS011;16357;52.188;7.838;2023-05-01T11:01:33;2.45;;;1.48;;
29370;SDS011;16357;52.188;7.838;2023-05-01T11:04:03;4.03;;;1.60;;
29370;SDS011;16357;52.188;7.838;2023-05-01T11:12:04;3.20;;;1.80;;
29370;SDS011;16357;52.188;7.838;2023-05-01T11:25:00;2.92;;;1.30;;
29370;SDS011;16357;52.188;7.838;2023-05-01T11:27:29;1.85;;;1.30;;
29370;SDS011;16357;52.188;7.838;2023-05-01T11:29:57;3.33;;;1.67;;
29370;SDS011;16357;52.188;7.838;2023-05-01T11:32:27;2.47;;;1.75;;
29370;SDS011;16357;52.188;7.838;2023-05-01T11:34:57;2.40;;;1.63;;
29370;SDS011;16357;52.188;7.838;2023-05-01T11:37:40;3.10;;;1.60;;
29370;SDS011;16357;52.188;7.838;2023-05-01T11:43:19;1.77;;;1.40;;
29370;SDS011;16357;52.188;7.838;2023-05-01T11:45:45;2.65;;;1.58;;
29370;SDS011;16357;52.188;7.838;2023-05-01T11:48:18;1.75;;;1.30;;
29370;SDS011;16357;52.188;7.838;2023-05-01T11:50:45;1.83;;;1.30;;
29370;SDS011;16357;52.188;7.838;2023-05-01T11:53:13;2.75;;;1.60;;
29370;SDS011;16357;52.188;7.838;2023-05-01T11:55:44;2.47;;;1.48;;
29370;SDS011;16357;52.188;7.838;2023-05-01T11:58:10;3.08;;;1.70;;
29370;SDS011;16357;52.188;7.838;2023-05-01T12:00:41;2.85;;;1.88;;
29370;SDS011;16357;52.188;7.838;2023-05-01T12:03:09;1.85;;;1.33;;
29370;SDS011;16357;52.188;7.838;2023-05-01T12:05:41;2.80;;;1.67;;
29370;SDS011;16357;52.188;7.838;2023-05-01T12:08:10;5.55;;;1.90;;
29370;SDS011;16357;52.188;7.838;2023-05-01T12:10:39;2.38;;;1.60;;
29370;SDS011;16357;52.188;7.838;2023-05-01T12:13:08;2.15;;;1.70;;
29370;SDS011;16357;52.188;7.838;2023-05-01T12:15:37;2.00;;;1.50;;
29370;SDS011;16357;52.188;7.838;2023-05-01T12:18:06;1.60;;;1.13;;
29370;SDS011;16357;52.188;7.838;2023-05-01T12:20:34;2.20;;;1.13;;
29370;SDS011;16357;52.188;7.838;2023-05-01T12:23:03;3.08;;;1.23;;
29370;SDS011;16357;52.188;7.838;2023-05-01T12:25:31;1.92;;;1.00;;
29370;SDS011;16357;52.188;7.838;2023-05-01T12:28:00;0.95;;;0.80;;
29370;SDS011;16357;52.188;7.838;2023-05-01T12:30:28;1.40;;;0.90;;
29370;SDS011;16357;52.188;7.838;2023-05-01T12:32:58;1.80;;;1.02;;
29370;SDS011;16357;52.188;7.838;2023-05-01T12:35:28;1.13;;;0.90;;
29370;SDS011;16357;52.188;7.838;2023-05-01T12:37:56;1.52;;;0.90;;
29370;SDS011;16357;52.188;7.838;2023-05-01T12:40:23;1.65;;;0.90;;
29370;SDS011;16357;52.188;7.838;2023-05-01T12:42:56;1.58;;;1.05;;
29370;SDS011;16357;52.188;7.838;2023-05-01T12:45:23;2.20;;;1.05;;
29370;SDS011;16357;52.188;7.838;2023-05-01T12:47:50;1.45;;;1.00;;
29370;SDS011;16357;52.188;7.838;2023-05-01T12:50:17;2.38;;;1.00;;
29370;SDS011;16357;52.188;7.838;2023-05-01T12:52:44;2.10;;;1.05;;
29370;SDS011;16357;52.188;7.838;2023-05-01T12:55:11;1.05;;;0.90;;
29370;SDS011;16357;52.188;7.838;2023-05-01T12:57:50;1.50;;;1.00;;
29370;SDS011;16357;52.188;7.838;2023-05-01T13:00:18;1.50;;;0.90;;
29370;SDS011;16357;52.188;7.838;2023-05-01T13:02:45;1.52;;;0.95;;
29370;SDS011;16357;52.188;7.838;2023-05-01T13:05:13;1.63;;;0.90;;
29370;SDS011;16357;52.188;7.838;2023-05-01T13:07:39;1.50;;;1.00;;
29370;SDS011;16357;52.188;7.838;2023-05-01T13:10:13;1.75;;;1.20;;
29370;SDS011;16357;52.188;7.838;2023-05-01T13:12:43;2.10;;;1.00;;
29370;SDS011;16357;52.188;7.838;2023-05-01T13:15:19;3.33;;;1.88;;
29370;SDS011;16357;52.188;7.838;2023-05-01T13:17:47;4.72;;;1.80;;
29370;SDS011;16357;52.188;7.838;2023-05-01T13:20:13;1.63;;;1.30;;
29370;SDS011;16357;52.188;7.838;2023-05-01T13:22:40;2.63;;;1.63;;
29370;SDS011;16357;52.188;7.838;2023-05-01T13:25:16;3.08;;;1.15;;
29370;SDS011;16357;52.188;7.838;2023-05-01T13:27:48;2.58;;;1.20;;
29370;SDS011;16357;52.188;7.838;2023-05-01T13:30:19;3.15;;;1.00;;
29370;SDS011;16357;52.188;7.838;2023-05-01T13:32:47;1.30;;;0.90;;
29370;SDS011;16357;52.188;7.838;2023-05-01T13:35:24;3.33;;;0.95;;
29370;SDS011;16357;52.188;7.838;2023-05-01T13:37:52;0.90;;;0.70;;
29370;SDS011;16357;52.188;7.838;2023-05-01T13:40:19;1.77;;;0.80;;
29370;SDS011;16357;52.188;7.838;2023-05-01T13:42:51;2.13;;;0.80;;
29370;SDS011;16357;52.188;7.838;2023-05-01T13:45:19;1.23;;;0.70;;
29370;SDS011;16357;52.188;7.838;2023-05-01T13:47:48;0.50;;;0.50;;
29370;SDS011;16357;52.188;7.838;2023-05-01T13:50:15;1.33;;;0.60;;
29370;SDS011;16357;52.188;7.838;2023-05-01T13:52:43;1.00;;;0.70;;
29370;SDS011;16357;52.188;7.838;2023-05-01T13:55:11;1.10;;;0.88;;
29370;SDS011;16357;52.188;7.838;2023-05-01T13:57:39;1.10;;;0.65;;
29370;SDS011;16357;52.188;7.838;2023-05-01T14:00:08;1.17;;;0.95;;
29370;SDS011;16357;52.188;7.838;2023-05-01T14:02:43;1.73;;;0.90;;
29370;SDS011;16357;52.188;7.838;2023-05-01T14:05:13;1.23;;;0.90;;
29370;SDS011;16357;52.188;7.838;2023-05-01T14:07:45;1.65;;;0.82;;
29370;SDS011;16357;52.188;7.838;2023-05-01T14:10:25;4.35;;;1.20;;
29370;SDS011;16357;52.188;7.838;2023-05-01T14:12:56;3.75;;;1.00;;
29370;SDS011;16357;52.188;7.838;2023-05-01T14:15:24;1.38;;;1.00;;
29370;SDS011;16357;52.188;7.838;2023-05-01T14:17:52;1.13;;;0.88;;
29370;SDS011;16357;52.188;7.838;2023-05-01T14:20:18;3.83;;;1.00;;
29370;SDS011;16357;52.188;7.838;2023-05-01T14:22:46;3.78;;;1.20;;
29370;SDS011;16357;52.188;7.838;2023-05-01T14:25:23;1.23;;;0.93;;
29370;SDS011;16357;52.188;7.838;2023-05-01T14:27:50;1.77;;;1.15;;
29370;SDS011;16357;52.188;7.838;2023-05-01T14:30:25;1.77;;;1.00;;
29370;SDS011;16357;52.188;7.838;2023-05-01T14:33:02;1.98;;;0.90;;
29370;SDS011;16357;52.188;7.838;2023-05-01T14:35:30;1.40;;;0.95;;
29370;SDS011;16357;52.188;7.838;2023-05-01T14:38:03;2.30;;;0.98;;
29370;SDS011;16357;52.188;7.838;2023-05-01T14:40:31;1.02;;;0.80;;
29370;SDS011;16357;52.188;7.838;2023-05-01T14:42:59;1.85;;;0.90;;
29370;SDS011;16357;52.188;7.838;2023-05-01T14:45:25;3.92;;;0.80;;
29370;SDS011;16357;52.188;7.838;2023-05-01T14:47:52;0.88;;;0.80;;
29370;SDS011;16357;52.188;7.838;2023-05-01T14:50:19;2.13;;;1.10;;
29370;SDS011;16357;52.188;7.838;2023-05-01T14:52:54;2.42;;;0.98;;
29370;SDS011;16357;52.188;7.838;2023-05-01T14:55:25;1.15;;;0.82;;
29370;SDS011;16357;52.188;7.838;2023-05-01T14:57:54;3.35;;;1.02;;
29370;SDS011;16357;52.188;7.838;2023-05-01T15:00:22;1.15;;;0.90;;
29370;SDS011;16357;52.188;7.838;2023-05-01T15:02:49;1.52;;;1.13;;
29370;SDS011;16357;52.188;7.838;2023-05-01T15:05:16;1.45;;;1.13;;
29370;SDS011;16357;52.188;7.838;2023-05-01T15:07:43;1.10;;;1.00;;
29370;SDS011;16357;52.188;7.838;2023-05-01T15:10:10;1.42;;;1.10;;
29370;SDS011;16357;52.188;7.838;2023-05-01T15:12:36;2.17;;;1.20;;
29370;SDS011;16357;52.188;7.838;2023-05-01T15:15:03;2.20;;;1.13;;
29370;SDS011;16357;52.188;7.838;2023-05-01T15:17:30;1.25;;;1.10;;
29370;SDS011;16357;52.188;7.838;2023-05-01T15:19:57;1.85;;;1.13;;
29370;SDS011;16357;52.188;7.838;2023-05-01T15:22:24;1.35;;;0.93;;
29370;SDS011;16357;52.188;7.838;2023-05-01T15:24:50;2.92;;;1.38;;
29370;SDS011;16357;52.188;7.838;2023-05-01T15:27:17;2.40;;;1.40;;
29370;SDS011;16357;52.188;7.838;2023-05-01T15:29:43;2.15;;;1.23;;
29370;SDS011;16357;52.188;7.838;2023-05-01T15:32:09;1.55;;;1.10;;
29370;SDS011;16357;52.188;7.838;2023-05-01T15:34:38;3.10;;;1.25;;
29370;SDS011;16357;52.188;7.838;2023-05-01T15:37:05;2.25;;;1.35;;
29370;SDS011;16357;52.188;7.838;2023-05-01T15:39:32;1.20;;;1.10;;
29370;SDS011;16357;52.188;7.838;2023-05-01T15:41:58;1.65;;;1.20;;